createdAt,value
2024-02-18T00:01:41.654Z,5.63
2024-02-18T00:04:08.443Z,5.30
2024-02-18T00:06:35.429Z,5.28
2024-02-18T00:09:02.133Z,6.50
2024-02-18T00:11:28.734Z,6.03
2024-02-18T00:13:55.441Z,6.40
2024-02-18T00:16:24.500Z,5.38
2024-02-18T00:18:51.171Z,5.53
2024-02-18T00:21:19.396Z,5.30
2024-02-18T00:23:46.408Z,6.20
2024-02-18T00:26:14.651Z,5.95
2024-02-18T00:28:41.191Z,5.60
2024-02-18T00:31:07.809Z,5.65
2024-02-18T00:33:34.520Z,5.25
2024-02-18T00:36:01.211Z,5.90
2024-02-18T00:38:28.801Z,6.13
2024-02-18T00:40:55.873Z,6.00
2024-02-18T00:43:22.478Z,5.35
2024-02-18T00:45:49.061Z,6.30
2024-02-18T00:48:15.789Z,5.55
2024-02-18T00:50:42.448Z,5.93
2024-02-18T00:53:09.123Z,5.72
2024-02-18T00:55:35.712Z,5.85
2024-02-18T00:58:02.321Z,5.72
2024-02-18T01:00:29.078Z,4.43
2024-02-18T01:02:55.674Z,5.43
2024-02-18T01:05:22.228Z,5.63
2024-02-18T01:07:49.031Z,5.18
2024-02-18T01:10:15.676Z,5.80
2024-02-18T01:12:42.260Z,5.70
2024-02-18T01:15:09.379Z,5.38
2024-02-18T01:17:36.018Z,4.90
2024-02-18T01:20:02.790Z,5.72
2024-02-18T01:22:29.354Z,6.13
2024-02-18T01:24:55.889Z,5.88
2024-02-18T01:27:23.025Z,4.65
2024-02-18T01:29:49.634Z,5.60
2024-02-18T01:32:16.124Z,5.30
2024-02-18T01:34:42.787Z,5.75
2024-02-18T01:37:09.391Z,5.85
2024-02-18T01:39:37.723Z,5.78
2024-02-18T01:42:04.816Z,7.03
2024-02-18T01:44:34.668Z,5.50
2024-02-18T01:47:01.642Z,7.00
2024-02-18T01:49:28.698Z,6.28
2024-02-18T01:51:55.426Z,6.00
2024-02-18T01:54:22.330Z,5.25
2024-02-18T01:56:48.838Z,5.00
2024-02-18T01:59:15.334Z,5.15
2024-02-18T02:01:41.956Z,5.32
2024-02-18T02:04:08.620Z,5.60
2024-02-18T02:06:35.310Z,5.53
2024-02-18T02:09:02.009Z,5.15
2024-02-18T02:11:28.711Z,5.38
2024-02-18T02:13:55.339Z,5.95
2024-02-18T02:16:23.643Z,6.22
2024-02-18T02:18:50.242Z,5.68
2024-02-18T02:21:17.479Z,8.32
2024-02-18T02:23:44.040Z,7.40
2024-02-18T02:26:12.135Z,6.85
2024-02-18T02:28:42.597Z,6.43
2024-02-18T02:31:09.254Z,5.22
2024-02-18T02:33:35.813Z,5.20
2024-02-18T02:36:02.372Z,5.38
2024-02-18T02:38:29.040Z,5.05
2024-02-18T02:40:55.585Z,5.30
2024-02-18T02:43:22.250Z,5.97
2024-02-18T02:45:48.817Z,6.55
2024-02-18T02:48:15.385Z,4.82
2024-02-18T02:50:42.345Z,5.68
2024-02-18T02:53:08.898Z,5.03
2024-02-18T02:55:35.452Z,4.22
2024-02-18T02:58:02.217Z,3.78
2024-02-18T03:00:28.906Z,5.28
2024-02-18T03:02:56.390Z,4.07
2024-02-18T03:05:22.968Z,5.10
2024-02-18T03:07:49.546Z,6.78
2024-02-18T03:10:16.309Z,5.97
2024-02-18T03:12:43.018Z,5.88
2024-02-18T03:15:09.804Z,5.13
2024-02-18T03:17:36.862Z,6.32
2024-02-18T03:20:06.310Z,6.95
2024-02-18T03:22:32.954Z,5.15
2024-02-18T03:25:02.627Z,5.22
2024-02-18T03:27:29.398Z,5.93
2024-02-18T03:29:55.980Z,6.10
2024-02-18T03:32:22.826Z,4.65
2024-02-18T03:34:49.462Z,5.22
2024-02-18T03:37:16.028Z,4.43
2024-02-18T03:39:42.624Z,5.28
2024-02-18T03:42:09.222Z,6.03
2024-02-18T03:44:35.853Z,5.13
2024-02-18T03:47:02.739Z,4.65
2024-02-18T03:49:30.320Z,6.00
2024-02-18T03:51:57.155Z,5.82
2024-02-18T03:54:23.895Z,5.22
2024-02-18T03:56:51.008Z,4.47
2024-02-18T03:59:17.813Z,4.45
2024-02-18T04:01:44.483Z,4.13
2024-02-18T04:04:11.218Z,4.20
2024-02-18T04:06:38.001Z,4.45
2024-02-18T04:09:04.567Z,3.88
2024-02-18T04:11:31.254Z,5.22
2024-02-18T04:13:58.118Z,5.20
2024-02-18T04:16:26.193Z,4.18
2024-02-18T04:18:54.717Z,3.72
2024-02-18T04:21:21.262Z,3.30
2024-02-18T04:23:47.796Z,3.90
2024-02-18T04:26:14.557Z,3.90
2024-02-18T04:28:41.419Z,5.50
2024-02-18T04:31:08.016Z,6.43
2024-02-18T04:33:34.918Z,6.97
2024-02-18T04:36:01.484Z,6.13
2024-02-18T04:38:28.725Z,3.17
2024-02-18T04:40:55.270Z,3.60
2024-02-18T04:43:21.776Z,4.28
2024-02-18T04:45:48.727Z,6.63
2024-02-18T04:48:16.175Z,5.95
2024-02-18T04:50:42.905Z,7.68
2024-02-18T04:53:09.642Z,7.72
2024-02-18T04:55:36.125Z,15.75
2024-02-18T04:58:02.694Z,7.35
2024-02-18T05:00:29.248Z,7.55
2024-02-18T05:02:55.856Z,7.43
2024-02-18T05:05:22.529Z,9.98
2024-02-18T05:07:49.095Z,5.50
2024-02-18T05:10:15.723Z,5.85
2024-02-18T05:12:42.313Z,5.80
2024-02-18T05:15:09.249Z,4.80
2024-02-18T05:17:35.820Z,4.13
2024-02-18T05:20:03.137Z,4.50
2024-02-18T05:22:29.724Z,3.92
2024-02-18T05:24:56.269Z,4.60
2024-02-18T05:27:22.869Z,4.15
2024-02-18T05:29:49.401Z,4.15
2024-02-18T05:32:15.903Z,4.20
2024-02-18T05:34:42.626Z,4.43
2024-02-18T05:37:09.291Z,4.63
2024-02-18T05:39:36.203Z,4.88
2024-02-18T05:42:02.733Z,5.78
2024-02-18T05:44:29.294Z,5.88
2024-02-18T05:46:55.811Z,9.63
2024-02-18T05:49:22.756Z,12.93
2024-02-18T05:52:06.356Z,9.45
2024-02-18T05:54:33.027Z,7.30
2024-02-18T05:56:59.527Z,7.32
2024-02-18T05:59:26.285Z,8.27
2024-02-18T06:01:52.859Z,8.63
2024-02-18T06:04:19.580Z,8.68
2024-02-18T06:06:46.195Z,9.65
2024-02-18T06:09:12.736Z,13.15
2024-02-18T06:11:40.476Z,11.40
2024-02-18T06:14:07.092Z,13.30
2024-02-18T06:16:33.631Z,7.35
2024-02-18T06:19:00.316Z,8.23
2024-02-18T06:21:26.950Z,7.22
2024-02-18T06:23:57.251Z,4.70
2024-02-18T06:26:24.698Z,5.38
2024-02-18T06:28:51.232Z,7.10
2024-02-18T06:31:18.672Z,7.22
2024-02-18T06:33:47.632Z,8.10
2024-02-18T06:36:14.364Z,7.03
2024-02-18T06:38:44.416Z,5.40
2024-02-18T06:41:11.434Z,7.80
2024-02-18T06:43:38.178Z,7.53
2024-02-18T06:46:04.999Z,7.10
2024-02-18T06:48:31.784Z,7.75
2024-02-18T06:50:58.705Z,8.63
2024-02-18T06:53:25.183Z,7.43
2024-02-18T06:55:51.715Z,10.48
2024-02-18T06:58:18.319Z,10.15
2024-02-18T07:00:45.013Z,9.75
2024-02-18T07:03:11.692Z,11.80
2024-02-18T07:05:38.221Z,9.18
2024-02-18T07:08:06.370Z,7.72
2024-02-18T07:10:32.885Z,7.70
2024-02-18T07:12:59.470Z,6.35
2024-02-18T07:15:26.121Z,5.15
2024-02-18T07:17:52.695Z,5.32
2024-02-18T07:20:19.354Z,5.88
2024-02-18T07:22:45.858Z,5.30
2024-02-18T07:25:14.471Z,5.25
2024-02-18T07:27:41.065Z,7.22
2024-02-18T07:30:08.322Z,5.10
2024-02-18T07:32:34.960Z,5.03
2024-02-18T07:35:01.561Z,4.88
2024-02-18T07:37:28.111Z,5.70
2024-02-18T07:39:54.644Z,4.85
2024-02-18T07:42:21.494Z,3.70
2024-02-18T07:44:48.077Z,4.32
2024-02-18T07:47:14.633Z,3.60
2024-02-18T07:49:41.225Z,4.28
2024-02-18T07:52:08.042Z,4.28
2024-02-18T07:54:34.660Z,4.75
2024-02-18T07:57:01.737Z,4.50
2024-02-18T07:59:28.325Z,4.50
2024-02-18T08:01:55.004Z,3.70
2024-02-18T08:04:21.655Z,5.15
2024-02-18T08:06:49.740Z,4.43
2024-02-18T08:09:16.892Z,4.90
2024-02-18T08:11:44.644Z,4.60
2024-02-18T08:14:11.245Z,4.15
2024-02-18T08:16:37.826Z,4.80
2024-02-18T08:19:04.525Z,3.80
2024-02-18T08:21:31.303Z,4.38
2024-02-18T08:23:58.129Z,3.70
2024-02-18T08:26:26.064Z,4.55
2024-02-18T08:28:53.028Z,5.20
2024-02-18T08:31:19.681Z,5.20
2024-02-18T08:33:46.864Z,4.57
2024-02-18T08:36:13.678Z,5.20
2024-02-18T08:38:40.402Z,4.63
2024-02-18T08:41:06.998Z,4.78
2024-02-18T08:43:35.011Z,5.15
2024-02-18T08:46:01.507Z,4.50
2024-02-18T08:48:29.547Z,5.32
2024-02-18T08:50:56.173Z,5.53
2024-02-18T08:53:23.001Z,5.95
2024-02-18T08:55:49.587Z,5.72
2024-02-18T08:58:16.138Z,5.43
2024-02-18T09:00:45.349Z,5.80
2024-02-18T09:03:11.964Z,5.55
2024-02-18T09:05:40.268Z,6.45
2024-02-18T09:08:08.077Z,7.32
2024-02-18T09:10:35.303Z,6.15
2024-02-18T09:13:04.480Z,5.35
2024-02-18T09:15:32.232Z,5.20
2024-02-18T09:17:58.914Z,4.25
2024-02-18T09:20:26.250Z,4.90
2024-02-18T09:22:53.106Z,4.57
2024-02-18T09:25:19.650Z,4.68
2024-02-18T09:27:46.352Z,5.10
2024-02-18T09:30:13.604Z,4.72
2024-02-18T09:32:41.011Z,5.03
2024-02-18T09:35:08.632Z,4.95
2024-02-18T09:37:37.441Z,5.43
2024-02-18T09:40:05.306Z,5.07
2024-02-18T09:42:35.647Z,4.93
2024-02-18T09:45:03.515Z,5.20
2024-02-18T09:47:30.817Z,6.38
2024-02-18T09:49:58.353Z,6.20
2024-02-18T09:52:25.501Z,6.55
2024-02-18T09:54:53.761Z,6.95
2024-02-18T09:57:20.283Z,6.90
2024-02-18T09:59:46.778Z,7.72
2024-02-18T10:02:13.382Z,7.63
2024-02-18T10:04:40.060Z,7.53
2024-02-18T10:07:06.810Z,6.57
2024-02-18T10:09:33.593Z,6.20
2024-02-18T10:12:00.223Z,7.75
2024-02-18T10:14:26.896Z,7.97
2024-02-18T10:16:53.558Z,8.20
2024-02-18T10:19:25.551Z,7.57
2024-02-18T10:21:52.482Z,8.07
2024-02-18T10:24:20.802Z,8.48
2024-02-18T10:26:47.400Z,7.47
2024-02-18T10:29:16.424Z,8.18
2024-02-18T10:31:43.059Z,6.97
2024-02-18T10:34:09.718Z,6.40
2024-02-18T10:36:37.795Z,6.50
2024-02-18T10:39:05.161Z,7.53
2024-02-18T10:41:36.982Z,6.20
2024-02-18T10:44:07.418Z,6.30
2024-02-18T10:46:34.008Z,6.45
2024-02-18T10:49:02.175Z,6.88
2024-02-18T10:51:37.326Z,6.57
2024-02-18T10:54:17.795Z,6.70
2024-02-18T10:56:44.386Z,7.20
2024-02-18T10:59:33.406Z,6.43
2024-02-18T11:02:02.763Z,6.78
2024-02-18T11:04:29.652Z,7.00
2024-02-18T11:06:56.581Z,7.28
2024-02-18T11:09:23.678Z,7.63
2024-02-18T11:11:52.016Z,8.27
2024-02-18T11:14:18.584Z,6.32
2024-02-18T11:16:46.557Z,7.82
2024-02-18T11:19:13.964Z,6.80
2024-02-18T11:21:41.599Z,7.32
2024-02-18T11:24:09.013Z,7.55
2024-02-18T11:26:35.508Z,6.80
2024-02-18T11:29:03.103Z,8.02
2024-02-18T11:31:30.455Z,6.80
2024-02-18T11:33:57.895Z,7.47
2024-02-18T11:36:25.587Z,6.80
2024-02-18T11:38:53.931Z,6.40
2024-02-18T11:41:25.860Z,6.50
2024-02-18T11:43:54.052Z,6.50
2024-02-18T11:46:24.841Z,6.03
2024-02-18T11:48:51.915Z,6.10
2024-02-18T11:51:18.692Z,6.22
2024-02-18T11:53:45.327Z,6.50
2024-02-18T11:56:13.473Z,6.13
2024-02-18T11:58:40.689Z,6.63
2024-02-18T12:01:07.421Z,5.93
2024-02-18T12:03:34.429Z,7.07
2024-02-18T12:06:02.037Z,5.70
2024-02-18T12:08:29.402Z,5.55
2024-02-18T12:10:55.996Z,6.00
2024-02-18T12:13:24.689Z,5.53
2024-02-18T12:15:51.961Z,5.80
2024-02-18T12:18:19.056Z,5.53
2024-02-18T12:20:48.886Z,5.28
2024-02-18T12:23:18.528Z,5.30
2024-02-18T12:25:45.969Z,5.95
2024-02-18T12:28:12.754Z,5.38
2024-02-18T12:30:39.368Z,5.70
2024-02-18T12:33:06.257Z,5.68
2024-02-18T12:35:34.785Z,5.57
2024-02-18T12:38:03.207Z,4.80
2024-02-18T12:40:30.147Z,5.82
2024-02-18T12:43:25.035Z,5.60
2024-02-18T12:45:50.601Z,5.00
2024-02-18T12:48:21.543Z,5.95
2024-02-18T12:50:57.150Z,4.85
2024-02-18T12:53:23.775Z,4.95
2024-02-18T12:55:50.590Z,5.15
2024-02-18T12:58:17.154Z,5.38
2024-02-18T13:00:43.719Z,4.22
2024-02-18T13:03:18.977Z,4.75
2024-02-18T13:05:46.479Z,4.63
2024-02-18T13:08:13.340Z,4.05
2024-02-18T13:10:40.574Z,4.43
2024-02-18T13:13:09.646Z,4.00
2024-02-18T13:15:36.445Z,3.70
2024-02-18T13:18:03.348Z,3.80
2024-02-18T13:20:31.842Z,3.80
2024-02-18T13:22:58.338Z,3.13
2024-02-18T13:25:24.974Z,2.85
2024-02-18T13:27:51.598Z,2.40
2024-02-18T13:30:21.125Z,1.90
2024-02-18T13:32:49.753Z,1.42
2024-02-18T13:35:16.587Z,1.30
2024-02-18T13:37:43.178Z,1.17
2024-02-18T13:40:10.267Z,0.50
2024-02-18T13:42:36.948Z,0.40
2024-02-18T13:45:04.800Z,0.70
2024-02-18T13:47:31.356Z,0.60
2024-02-18T13:49:59.609Z,0.82
2024-02-18T13:52:27.291Z,0.95
2024-02-18T13:54:53.989Z,1.20
2024-02-18T13:57:20.777Z,1.20
2024-02-18T13:59:47.342Z,1.52
2024-02-18T14:02:13.835Z,1.15
2024-02-18T14:04:40.356Z,1.48
2024-02-18T14:07:08.327Z,1.33
2024-02-18T14:09:35.251Z,1.00
2024-02-18T14:12:05.318Z,0.75
2024-02-18T14:16:59.890Z,1.08
2024-02-18T14:19:26.555Z,0.70
2024-02-18T14:21:53.328Z,0.70
2024-02-18T14:24:21.325Z,0.60
2024-02-18T14:26:47.916Z,0.60
2024-02-18T14:29:14.474Z,0.50
2024-02-18T14:31:40.948Z,0.75
2024-02-18T14:34:07.838Z,1.20
2024-02-18T14:36:34.594Z,0.75
2024-02-18T14:39:01.154Z,0.60
2024-02-18T14:41:27.752Z,0.70
2024-02-18T14:43:54.335Z,0.60
2024-02-18T14:46:20.866Z,1.23
2024-02-18T14:48:47.530Z,0.70
2024-02-18T14:51:15.317Z,0.70
2024-02-18T14:53:47.288Z,0.90
2024-02-18T14:56:13.915Z,0.88
2024-02-18T14:58:40.446Z,0.95
2024-02-18T15:01:09.191Z,0.93
2024-02-18T15:03:35.827Z,0.80
2024-02-18T15:06:02.743Z,0.75
2024-02-18T15:08:32.513Z,0.70
2024-02-18T15:10:59.044Z,0.70
2024-02-18T15:13:26.132Z,0.90
2024-02-18T15:15:52.914Z,0.90
2024-02-18T15:18:19.825Z,0.88
2024-02-18T15:20:46.576Z,1.00
2024-02-18T15:23:13.081Z,0.70
2024-02-18T15:25:39.588Z,0.85
2024-02-18T15:28:06.443Z,0.80
2024-02-18T15:30:33.019Z,1.10
2024-02-18T15:32:59.614Z,0.90
2024-02-18T15:35:28.676Z,1.00
2024-02-18T15:37:55.190Z,1.00
2024-02-18T15:40:23.034Z,0.95
2024-02-18T15:42:50.691Z,1.15
2024-02-18T15:45:17.307Z,1.10
2024-02-18T15:47:44.213Z,0.80
2024-02-18T15:50:11.220Z,1.33
2024-02-18T15:52:37.739Z,1.40
2024-02-18T15:55:04.551Z,2.08
2024-02-18T15:57:31.143Z,1.75
2024-02-18T15:59:57.819Z,0.98
2024-02-18T16:02:24.495Z,2.22
2024-02-18T16:04:53.552Z,1.05
2024-02-18T16:07:20.198Z,1.08
2024-02-18T16:09:49.035Z,2.40
2024-02-18T16:12:15.623Z,2.33
2024-02-18T16:14:42.209Z,2.05
2024-02-18T16:17:08.722Z,2.30
2024-02-18T16:19:35.437Z,1.92
2024-02-18T16:22:02.157Z,1.50
2024-02-18T16:24:28.985Z,1.92
2024-02-18T16:26:55.542Z,2.20
2024-02-18T16:29:24.348Z,2.03
2024-02-18T16:31:51.138Z,2.50
2024-02-18T16:34:17.984Z,2.35
2024-02-18T16:36:44.848Z,2.58
2024-02-18T16:39:14.580Z,4.15
2024-02-18T16:41:41.956Z,3.55
2024-02-18T16:44:08.466Z,3.25
2024-02-18T16:46:39.510Z,3.67
2024-02-18T16:49:06.373Z,3.50
2024-02-18T16:51:35.360Z,3.47
2024-02-18T16:54:01.950Z,2.67
2024-02-18T16:56:28.767Z,3.03
2024-02-18T16:58:55.300Z,2.25
2024-02-18T17:01:21.932Z,2.20
2024-02-18T17:03:48.772Z,3.05
2024-02-18T17:06:15.945Z,2.22
2024-02-18T17:08:42.736Z,3.08
2024-02-18T17:11:09.316Z,3.22
2024-02-18T17:13:35.979Z,3.17
2024-02-18T17:16:02.528Z,3.42
2024-02-18T17:18:29.727Z,3.60
2024-02-18T17:20:56.476Z,3.97
2024-02-18T17:23:22.978Z,3.63
2024-02-18T17:25:49.583Z,3.47
2024-02-18T17:28:16.226Z,3.88
2024-02-18T17:30:42.916Z,3.45
2024-02-18T17:33:09.546Z,3.75
2024-02-18T17:35:39.279Z,3.50
2024-02-18T17:38:05.824Z,4.10
2024-02-18T17:40:32.333Z,4.68
2024-02-18T17:42:58.953Z,3.60
2024-02-18T17:45:25.490Z,3.72
2024-02-18T17:47:52.191Z,3.80
2024-02-18T17:50:19.283Z,3.58
2024-02-18T17:52:45.838Z,4.07
2024-02-18T17:55:12.558Z,4.28
2024-02-18T17:57:41.031Z,4.22
2024-02-18T18:00:10.705Z,4.72
2024-02-18T18:02:39.467Z,3.92
2024-02-18T18:05:06.651Z,4.13
2024-02-18T18:07:34.048Z,4.30
2024-02-18T18:10:00.995Z,4.40
2024-02-18T18:12:27.614Z,4.57
2024-02-18T18:14:54.221Z,4.60
2024-02-18T18:17:21.765Z,3.38
2024-02-18T18:19:48.576Z,2.85
2024-02-18T18:22:15.240Z,2.05
2024-02-18T18:24:41.864Z,2.63
2024-02-18T18:27:08.515Z,2.45
2024-02-18T18:29:35.112Z,2.65
2024-02-18T18:32:01.692Z,2.75
2024-02-18T18:34:28.278Z,2.33
2024-02-18T18:36:54.942Z,2.40
2024-02-18T18:39:23.539Z,2.65
2024-02-18T18:41:51.996Z,2.55
2024-02-18T18:44:18.467Z,2.20
2024-02-18T18:46:44.981Z,2.83
2024-02-18T18:49:11.574Z,2.55
2024-02-18T18:51:38.147Z,2.53
2024-02-18T18:54:04.892Z,2.63
2024-02-18T18:56:31.442Z,3.08
2024-02-18T18:58:58.014Z,2.75
2024-02-18T19:01:24.603Z,2.90
2024-02-18T19:03:51.312Z,3.03
2024-02-18T19:06:17.982Z,3.30
2024-02-18T19:08:44.695Z,2.92
2024-02-18T19:11:13.707Z,4.13
2024-02-18T19:13:43.419Z,4.32
2024-02-18T19:16:17.294Z,2.97
2024-02-18T19:18:44.932Z,3.28
2024-02-18T19:21:11.509Z,3.55
2024-02-18T19:23:39.003Z,3.38
2024-02-18T19:26:09.063Z,3.90
2024-02-18T19:28:35.986Z,8.45
2024-02-18T19:31:02.496Z,11.15
2024-02-18T19:33:29.079Z,9.55
2024-02-18T19:35:55.572Z,5.00
2024-02-18T19:38:22.132Z,6.80
2024-02-18T19:40:48.638Z,7.72
2024-02-18T19:43:15.334Z,6.38
2024-02-18T19:45:41.979Z,5.28
2024-02-18T19:48:08.694Z,4.40
2024-02-18T19:50:35.220Z,4.45
2024-02-18T19:53:01.754Z,4.07
2024-02-18T19:55:28.280Z,4.20
2024-02-18T19:57:54.823Z,4.07
2024-02-18T20:00:21.369Z,3.75
2024-02-18T20:02:49.074Z,4.55
2024-02-18T20:05:16.118Z,3.88
2024-02-18T20:07:43.008Z,3.40
2024-02-18T20:10:09.928Z,3.47
2024-02-18T20:12:37.386Z,3.70
2024-02-18T20:15:05.173Z,2.88
2024-02-18T20:17:31.831Z,3.55
2024-02-18T20:19:59.833Z,4.05
2024-02-18T20:22:26.438Z,5.55
2024-02-18T20:24:53.681Z,3.45
2024-02-18T20:27:20.268Z,3.38
2024-02-18T20:29:46.778Z,4.20
2024-02-18T20:32:13.226Z,3.83
2024-02-18T20:34:43.087Z,4.00
2024-02-18T20:37:09.991Z,4.22
2024-02-18T20:39:41.548Z,2.95
2024-02-18T20:42:08.212Z,2.95
2024-02-18T20:44:34.763Z,3.60
2024-02-18T20:47:02.548Z,2.92
2024-02-18T20:49:29.865Z,2.75
2024-02-18T20:51:56.454Z,2.97
2024-02-18T20:54:22.990Z,3.55
2024-02-18T20:56:49.870Z,2.67
2024-02-18T20:59:16.386Z,2.80
2024-02-18T21:01:43.716Z,3.00
2024-02-18T21:04:10.308Z,2.88
2024-02-18T21:06:37.032Z,2.63
2024-02-18T21:09:04.866Z,3.00
2024-02-18T21:11:31.421Z,3.30
2024-02-18T21:13:58.320Z,2.60
2024-02-18T21:16:24.844Z,2.83
2024-02-18T21:18:51.531Z,3.30
2024-02-18T21:21:18.266Z,3.53
2024-02-18T21:23:44.796Z,3.47
2024-02-18T21:26:18.266Z,3.10
2024-02-18T21:28:49.754Z,3.53
2024-02-18T21:31:16.949Z,4.30
2024-02-18T21:33:43.669Z,4.30
2024-02-18T21:36:14.932Z,4.63
2024-02-18T21:38:41.799Z,4.70
2024-02-18T21:41:08.315Z,4.40
2024-02-18T21:43:34.797Z,4.80
2024-02-18T21:46:01.482Z,5.22
2024-02-18T21:48:28.104Z,5.85
2024-02-18T21:50:54.719Z,6.75
2024-02-18T21:53:21.244Z,7.00
2024-02-18T21:55:47.868Z,6.63
2024-02-18T21:58:14.533Z,6.45
2024-02-18T22:00:41.101Z,5.63
2024-02-18T22:03:07.677Z,6.32
2024-02-18T22:05:34.282Z,5.07
2024-02-18T22:08:00.990Z,4.80
2024-02-18T22:10:27.720Z,5.55
2024-02-18T22:12:54.503Z,4.80
2024-02-18T22:15:21.103Z,5.07
2024-02-18T22:17:47.782Z,5.43
2024-02-18T22:20:14.576Z,5.53
2024-02-18T22:22:41.193Z,5.20
2024-02-18T22:25:09.057Z,5.20
2024-02-18T22:27:35.989Z,4.75
2024-02-18T22:30:05.391Z,4.50
2024-02-18T22:32:31.968Z,5.25
2024-02-18T22:34:58.591Z,5.30
2024-02-18T22:37:25.715Z,4.93
2024-02-18T22:39:52.393Z,5.50
2024-02-18T22:42:18.902Z,5.03
2024-02-18T22:44:45.448Z,5.25
2024-02-18T22:47:11.942Z,5.35
2024-02-18T22:49:38.726Z,5.57
2024-02-18T22:52:05.608Z,5.32
2024-02-18T22:54:32.285Z,4.57
2024-02-18T22:56:58.807Z,5.25
2024-02-18T22:59:25.308Z,4.10
2024-02-18T23:01:52.402Z,4.63
2024-02-18T23:04:19.467Z,4.25
2024-02-18T23:06:46.074Z,3.78
2024-02-18T23:09:12.603Z,3.15
2024-02-18T23:11:39.259Z,3.47
2024-02-18T23:14:05.775Z,3.72
2024-02-18T23:16:32.278Z,3.65
2024-02-18T23:18:58.792Z,4.32
2024-02-18T23:21:25.366Z,3.38
2024-02-18T23:23:51.934Z,3.63
2024-02-18T23:26:18.574Z,3.15
2024-02-18T23:28:45.054Z,3.47
2024-02-18T23:31:12.320Z,3.63
2024-02-18T23:33:38.985Z,4.50
2024-02-18T23:36:06.262Z,4.55
2024-02-18T23:38:32.809Z,3.58
2024-02-18T23:41:00.651Z,4.65
2024-02-18T23:43:38.019Z,4.18
2024-02-18T23:46:06.114Z,3.90
2024-02-18T23:48:34.272Z,3.85
2024-02-18T23:51:01.689Z,3.80
2024-02-18T23:53:28.292Z,3.83
2024-02-18T23:55:55.266Z,4.53
2024-02-18T23:58:22.107Z,3.72
